Time;durP1;ratioP1;P1;durP2;ratioP2;P2;SDS_P1;SDS_P2;PMS_P1;PMS_P2;Temp;Humidity;BMP_temperature;BMP_pressure;BME280_temperature;BME280_humidity;BME280_pressure;Samples;Min_cycle;Max_cycle;Signal;HPM_P1;HPM_P2
2023/06/02 00:01:04;;;;;;;18.60;10.40;;;;;;;16.04;100.00;99914.03;5017891;28;20056;-20
2023/06/02 00:03:32;;;;;;;20.45;11.02;;;;;;;15.79;100.00;99919.22;5022885;28;20452;-18
2023/06/02 00:06:01;;;;;;;11.13;7.15;;;;;;;15.85;100.00;99913.63;5017711;28;20040;-18
2023/06/02 00:08:28;;;;;;;10.57;7.20;;;;;;;15.85;100.00;99912.81;5023012;28;20041;-18
2023/06/02 00:10:54;;;;;;;10.63;6.73;;;;;;;16.11;100.00;99913.00;5013698;28;20030;-19
2023/06/02 00:13:20;;;;;;;11.82;7.65;;;;;;;16.51;100.00;99915.13;5023642;28;20284;-18
2023/06/02 00:15:46;;;;;;;11.82;7.45;;;;;;;16.26;100.00;99913.06;5017221;28;20021;-19
2023/06/02 00:18:12;;;;;;;13.23;7.90;;;;;;;16.33;100.00;99910.97;5024776;28;20029;-22
2023/06/02 00:20:38;;;;;;;12.48;6.43;;;;;;;16.21;100.00;99907.69;5015905;28;20025;-19
2023/06/02 00:23:03;;;;;;;10.90;7.18;;;;;;;16.06;100.00;99901.13;5024715;28;20032;-18
2023/06/02 00:25:32;;;;;;;11.60;7.30;;;;;;;16.09;100.00;99901.69;5015424;28;20029;-20
2023/06/02 00:27:58;;;;;;;12.10;7.47;;;;;;;15.57;100.00;99895.91;5025509;28;20018;-19
2023/06/02 00:30:23;;;;;;;13.00;7.55;;;;;;;15.25;100.00;99903.94;5016338;28;20713;-19
2023/06/02 00:32:49;;;;;;;16.98;9.57;;;;;;;15.21;100.00;99900.94;5021531;28;20026;-19
2023/06/02 00:35:14;;;;;;;16.30;10.13;;;;;;;15.06;100.00;99900.78;5017955;28;20037;-19
2023/06/02 00:37:40;;;;;;;11.82;8.27;;;;;;;15.33;100.00;99894.59;5030622;28;20029;-18
2023/06/02 00:40:06;;;;;;;10.82;7.70;;;;;;;15.54;100.00;99896.41;5019052;28;20026;-18
2023/06/02 00:42:32;;;;;;;10.25;6.53;;;;;;;15.54;100.00;99904.47;5028964;28;20046;-21
2023/06/02 00:44:57;;;;;;;10.20;7.18;;;;;;;15.50;100.00;99905.22;5020336;28;20045;-19
2023/06/02 00:47:23;;;;;;;12.30;6.53;;;;;;;15.44;100.00;99904.38;5027596;28;20407;-19
2023/06/02 00:49:48;;;;;;;8.45;5.93;;;;;;;15.65;100.00;99887.38;5021438;28;20096;-19
2023/06/02 00:52:18;;;;;;;14.13;7.82;;;;;;;15.63;100.00;99899.41;5026242;28;20033;-19
2023/06/02 00:54:43;;;;;;;10.02;6.20;;;;;;;15.95;100.00;99891.34;5022140;28;20030;-22
2023/06/02 00:57:09;;;;;;;9.90;6.10;;;;;;;15.63;100.00;99881.44;5025524;28;20041;-19
2023/06/02 00:59:36;;;;;;;9.43;6.60;;;;;;;15.81;100.00;99892.88;5023348;28;20487;-19
2023/06/02 01:02:02;;;;;;;13.73;6.78;;;;;;;15.86;100.00;99892.94;5023901;28;20021;-18
2023/06/02 01:04:30;;;;;;;10.68;7.20;;;;;;;15.70;100.00;99888.47;5024698;28;20029;-18
2023/06/02 01:07:00;;;;;;;11.43;6.72;;;;;;;15.72;100.00;99886.34;5023069;28;20057;-21
2023/06/02 01:09:26;;;;;;;9.05;6.57;;;;;;;15.89;100.00;99889.72;5024577;28;20041;-19
2023/06/02 01:11:52;;;;;;;9.68;6.28;;;;;;;15.70;100.00;99891.97;5022515;28;20053;-20
2023/06/02 01:14:18;;;;;;;11.07;7.15;;;;;;;15.84;100.00;99885.09;5025583;28;20419;-20
2023/06/02 01:16:44;;;;;;;8.88;6.35;;;;;;;15.74;100.00;99889.59;5021365;28;20025;-22
2023/06/02 01:19:14;;;;;;;8.82;6.47;;;;;;;15.81;100.00;99884.81;5026159;28;20021;-20
2023/06/02 01:21:47;;;;;;;9.27;6.60;;;;;;;16.09;100.00;99890.94;5012279;28;20111;-18
2023/06/02 01:24:14;;;;;;;10.73;7.40;;;;;;;16.01;100.00;99889.53;5026604;28;20033;-19
2023/06/02 01:26:40;;;;;;;8.77;7.00;;;;;;;15.61;100.00;99880.88;5016131;28;20034;-19
2023/06/02 01:29:07;;;;;;;10.40;6.97;;;;;;;15.75;100.00;99892.06;5022357;28;20029;-18
2023/06/02 01:31:46;;;;;;;9.57;7.18;;;;;;;16.29;100.00;99895.63;5010471;28;20038;-18
2023/06/02 01:34:12;;;;;;;12.90;7.90;;;;;;;16.21;100.00;99905.00;5014260;28;20044;-19
2023/06/02 01:36:40;;;;;;;10.18;6.93;;;;;;;15.58;100.00;99885.94;5028995;28;20031;-20
2023/06/02 01:39:07;;;;;;;;;;;;;;;16.04;100.00;99899.78;5016568;28;20049;-19
2023/06/02 01:41:36;;;;;;;12.40;7.53;;;;;;;16.22;100.00;99890.44;5028306;28;20391;-19
2023/06/02 01:44:02;;;;;;;10.38;7.90;;;;;;;16.36;100.00;99894.28;5016707;28;20105;-19
2023/06/02 01:46:28;;;;;;;13.68;7.85;;;;;;;16.39;100.00;99891.09;5013072;28;20039;-19
2023/06/02 01:48:55;;;;;;;11.80;7.10;;;;;;;16.04;100.00;99887.13;5017396;28;20026;-19
2023/06/02 01:51:20;;;;;;;13.43;7.50;;;;;;;16.42;100.00;99887.88;5019498;28;20124;-19
2023/06/02 01:53:46;;;;;;;12.75;7.88;;;;;;;16.54;100.00;99893.03;5026158;28;20180;-19
2023/06/02 01:56:11;;;;;;;11.45;6.90;;;;;;;16.18;100.00;99882.13;5025655;28;20026;-19
2023/06/02 01:58:37;;;;;;;11.48;7.00;;;;;;;15.61;100.00;99888.94;5009115;28;20040;-18
2023/06/02 02:01:03;;;;;;;11.88;7.43;;;;;;;15.39;100.00;99882.84;5025648;28;20037;-20
2023/06/02 02:03:32;;;;;;;10.27;6.88;;;;;;;15.14;100.00;99880.69;5008442;28;20061;-19
2023/06/02 02:05:58;;;;;;;10.35;6.85;;;;;;;15.06;100.00;99893.53;4999024;28;20555;-18
2023/06/02 02:08:24;;;;;;;10.80;6.90;;;;;;;15.26;100.00;99894.78;5021675;28;20136;-19
2023/06/02 02:10:50;;;;;;;10.15;6.82;;;;;;;15.56;100.00;99894.25;5017473;28;20397;-19
2023/06/02 02:13:15;;;;;;;9.98;7.15;;;;;;;15.78;100.00;99896.09;5022002;28;20041;-23
2023/06/02 02:15:40;;;;;;;10.85;6.97;;;;;;;15.65;100.00;99898.13;5023341;28;20039;-19
2023/06/02 02:18:06;;;;;;;11.48;6.68;;;;;;;15.48;100.00;99897.41;5009199;28;20048;-19
2023/06/02 02:20:32;;;;;;;9.63;6.25;;;;;;;15.15;100.00;99893.88;5022978;28;20083;-19
2023/06/02 02:22:57;;;;;;;9.98;6.57;;;;;;;14.88;100.00;99895.75;5028012;28;20037;-18
2023/06/02 02:25:23;;;;;;;11.38;7.10;;;;;;;14.79;100.00;99900.72;5025071;28;20030;-19
2023/06/02 02:27:49;;;;;;;11.55;7.10;;;;;;;14.70;100.00;99897.69;5011416;28;20119;-19
2023/06/02 02:30:15;;;;;;;11.27;7.30;;;;;;;14.97;100.00;99897.72;5022561;28;20021;-24
2023/06/02 02:32:44;;;;;;;10.00;6.95;;;;;;;15.03;100.00;99902.09;5011189;28;20032;-19
2023/06/02 02:35:10;;;;;;;10.30;6.70;;;;;;;15.18;100.00;99906.00;5021954;28;20044;-19
2023/06/02 02:37:36;;;;;;;11.90;7.40;;;;;;;15.44;100.00;99891.72;5021579;28;20033;-19
2023/06/02 02:40:03;;;;;;;11.25;7.22;;;;;;;15.47;100.00;99885.06;5024275;28;20247;-19
2023/06/02 02:42:28;;;;;;;9.95;6.82;;;;;;;15.66;100.00;99883.59;4999565;28;20212;-19
2023/06/02 02:44:54;;;;;;;9.48;7.00;;;;;;;15.37;100.00;99880.41;5007760;28;20112;-19
2023/06/02 02:47:20;;;;;;;11.65;6.95;;;;;;;15.85;100.00;99885.91;5008226;28;20029;-20
2023/06/02 02:49:46;;;;;;;9.63;7.25;;;;;;;15.82;100.00;99881.06;5007140;28;20034;-19
2023/06/02 02:52:12;;;;;;;12.02;7.90;;;;;;;15.60;100.00;99878.44;5007152;28;20096;-20
2023/06/02 02:54:38;;;;;;;13.80;7.10;;;;;;;15.22;100.00;99889.13;5007625;28;20428;-20
2023/06/02 02:57:04;;;;;;;10.82;7.22;;;;;;;15.33;100.00;99876.59;5007756;28;20030;-20
2023/06/02 02:59:31;;;;;;;14.13;7.78;;;;;;;15.30;100.00;99876.28;5007369;28;20022;-20
2023/06/02 03:01:57;;;;;;;10.67;7.30;;;;;;;14.91;100.00;99893.34;5007624;28;20025;-19
2023/06/02 03:04:22;;;;;;;17.13;7.78;;;;;;;14.79;100.00;99890.00;5007506;28;20353;-21
2023/06/02 03:06:49;;;;;;;12.90;6.70;;;;;;;14.77;100.00;99895.63;5007434;28;20034;-23
2023/06/02 03:09:18;;;;;;;12.88;7.28;;;;;;;15.12;100.00;99889.03;5007324;28;20041;-19
2023/06/02 03:11:45;;;;;;;13.15;7.85;;;;;;;15.38;100.00;99883.88;5005644;28;20109;-19
2023/06/02 03:14:11;;;;;;;15.55;8.13;;;;;;;14.99;100.00;99884.84;5007040;28;20026;-19
2023/06/02 03:16:41;;;;;;;11.77;7.60;;;;;;;14.65;100.00;99884.22;5007433;28;20084;-19
2023/06/02 03:19:10;;;;;;;15.23;8.15;;;;;;;14.66;100.00;99885.81;5007321;28;20030;-19
2023/06/02 03:21:41;;;;;;;15.10;9.05;;;;;;;14.53;100.00;99875.44;5006048;28;20029;-18
2023/06/02 03:24:17;;;;;;;16.70;8.98;;;;;;;14.50;100.00;99882.09;5006309;28;20037;-19
2023/06/02 03:26:43;;;;;;;16.80;9.00;;;;;;;14.85;100.00;99879.09;5007352;28;20026;-20
2023/06/02 03:29:09;;;;;;;14.88;9.00;;;;;;;14.84;100.00;99882.00;5006478;28;20643;-19
2023/06/02 03:31:35;;;;;;;15.50;8.60;;;;;;;14.99;100.00;99879.47;5006302;28;20432;-19
2023/06/02 03:34:02;;;;;;;16.05;8.60;;;;;;;14.85;100.00;99879.09;5006866;28;20519;-20
2023/06/02 03:36:28;;;;;;;20.02;11.57;;;;;;;14.78;100.00;99875.78;5006665;28;20100;-19
2023/06/02 03:38:53;;;;;;;23.98;13.07;;;;;;;14.57;100.00;99876.59;5007000;28;20034;-21
2023/06/02 03:41:19;;;;;;;32.28;17.15;;;;;;;14.56;100.00;99881.13;5009359;28;20045;-18
2023/06/02 03:43:44;;;;;;;34.95;18.92;;;;;;;14.56;100.00;99880.34;5020443;28;20099;-19
2023/06/02 03:46:10;;;;;;;21.73;10.82;;;;;;;14.79;100.00;99890.81;5023055;28;20029;-19
2023/06/02 03:48:35;;;;;;;26.95;14.02;;;;;;;14.96;100.00;99887.25;5017814;28;20103;-19
2023/06/02 03:51:01;;;;;;;21.13;11.70;;;;;;;15.42;100.00;99872.38;5023133;28;20418;-18
2023/06/02 03:53:27;;;;;;;16.70;10.02;;;;;;;15.78;100.00;99888.81;5013347;28;20030;-19
2023/06/02 03:55:52;;;;;;;14.63;9.15;;;;;;;15.97;100.00;99886.53;5012526;28;20037;-19
2023/06/02 03:58:19;;;;;;;14.00;8.77;;;;;;;15.91;100.00;99884.06;4996282;28;20412;-19
2023/06/02 04:00:46;;;;;;;15.47;9.40;;;;;;;15.89;100.00;99887.00;5015526;28;20117;-19
2023/06/02 04:03:11;;;;;;;13.43;9.23;;;;;;;15.87;100.00;99881.09;5004376;28;20116;-19
2023/06/02 04:05:37;;;;;;;15.43;8.82;;;;;;;15.76;100.00;99871.34;5011834;28;20168;-18
2023/06/02 04:08:03;;;;;;;11.98;8.45;;;;;;;15.90;100.00;99875.22;5013731;28;20177;-18
2023/06/02 04:10:30;;;;;;;11.98;8.57;;;;;;;15.93;100.00;99874.69;5013759;28;20034;-19
2023/06/02 04:12:56;;;;;;;14.77;8.73;;;;;;;16.09;100.00;99878.28;5014049;28;20041;-19
2023/06/02 04:15:21;;;;;;;12.25;8.57;;;;;;;16.17;100.00;99871.59;5013051;28;20034;-19
2023/06/02 04:17:47;;;;;;;13.55;8.48;;;;;;;15.93;100.00;99877.38;5014739;28;20715;-19
2023/06/02 04:20:12;;;;;;;16.83;8.43;;;;;;;16.19;100.00;99880.22;5015040;28;20112;-20
2023/06/02 04:22:38;;;;;;;13.75;8.18;;;;;;;16.07;100.00;99875.84;5016743;28;20412;-19
2023/06/02 04:25:05;;;;;;;15.55;8.55;;;;;;;16.43;100.00;99881.44;5014023;28;20034;-19
2023/06/02 04:27:33;;;;;;;13.00;8.32;;;;;;;16.56;100.00;99873.94;5014151;28;20087;-22
2023/06/02 04:29:58;;;;;;;20.77;13.15;;;;;;;16.78;100.00;99882.63;5011690;28;20034;-19
2023/06/02 04:32:24;;;;;;;19.02;11.32;;;;;;;16.67;100.00;99892.56;5011120;28;20095;-19
2023/06/02 04:34:50;;;;;;;14.60;9.50;;;;;;;16.98;100.00;99897.25;5012463;28;20087;-19
2023/06/02 04:37:16;;;;;;;14.60;9.27;;;;;;;17.03;100.00;99899.97;5014920;28;20084;-20
2023/06/02 04:39:46;;;;;;;14.40;9.23;;;;;;;16.89;100.00;99891.59;5012642;28;20420;-19
2023/06/02 04:42:13;;;;;;;13.63;9.10;;;;;;;17.01;100.00;99902.13;5007122;28;20042;-19
2023/06/02 04:44:39;;;;;;;13.05;9.20;;;;;;;16.86;100.00;99879.47;5004856;28;20038;-18
2023/06/02 04:47:05;;;;;;;11.25;9.07;;;;;;;17.17;100.00;99897.59;5005891;28;20018;-19
2023/06/02 04:49:33;;;;;;;15.43;9.95;;;;;;;17.25;100.00;99891.69;5005659;28;20657;-19
2023/06/02 04:51:58;;;;;;;15.50;9.68;;;;;;;17.21;100.00;99891.41;5005873;28;20081;-19
2023/06/02 04:54:24;;;;;;;16.58;9.57;;;;;;;17.32;100.00;99902.19;5005441;28;20503;-20
2023/06/02 04:56:49;;;;;;;16.33;9.18;;;;;;;17.51;100.00;99900.59;5005864;28;20049;-19
2023/06/02 04:59:15;;;;;;;14.63;11.25;;;;;;;17.74;100.00;99915.44;5005599;28;20523;-19
2023/06/02 05:01:41;;;;;;;18.02;10.82;;;;;;;17.52;100.00;99906.81;5005580;28;20030;-19
2023/06/02 05:04:06;;;;;;;17.40;12.40;;;;;;;17.74;100.00;99914.63;5005870;28;20033;-19
2023/06/02 05:06:32;;;;;;;15.70;11.63;;;;;;;17.88;100.00;99910.34;5005455;28;20042;-19
2023/06/02 05:08:58;;;;;;;13.32;9.55;;;;;;;18.13;100.00;99919.50;5004500;28;20433;-19
2023/06/02 05:11:23;;;;;;;18.73;11.32;;;;;;;18.38;99.64;99914.03;5004806;28;20516;-20
2023/06/02 05:13:48;;;;;;;12.32;10.15;;;;;;;18.59;100.00;99922.06;5005575;28;20033;-19
2023/06/02 05:16:14;;;;;;;11.90;8.70;;;;;;;18.55;99.14;99921.81;5008104;28;20050;-19
2023/06/02 05:18:40;;;;;;;13.48;8.90;;;;;;;18.60;98.78;99904.78;5009550;28;20091;-18
2023/06/02 05:21:05;;;;;;;13.00;9.57;;;;;;;18.64;98.71;99928.25;5009805;28;20026;-19
2023/06/02 05:23:30;;;;;;;12.75;8.43;;;;;;;18.80;95.66;99910.13;5009821;28;20022;-19
2023/06/02 05:25:56;;;;;;;11.90;9.02;;;;;;;18.99;97.36;99917.59;5009245;28;20030;-18
2023/06/02 05:28:21;;;;;;;13.90;9.55;;;;;;;19.11;95.08;99925.38;5009621;28;20029;-23
2023/06/02 05:30:47;;;;;;;14.30;8.88;;;;;;;19.05;95.14;99911.09;5009541;28;20030;-20
2023/06/02 05:33:12;;;;;;;11.07;9.02;;;;;;;19.21;93.02;99926.13;4991803;28;20028;-19
2023/06/02 05:35:37;;;;;;;11.93;7.90;;;;;;;19.28;89.18;99923.91;5009539;28;20560;-19
2023/06/02 05:38:03;;;;;;;18.42;10.82;;;;;;;19.24;93.47;99919.34;5009370;28;20022;-18
2023/06/02 05:40:28;;;;;;;11.32;8.05;;;;;;;19.33;89.80;99916.84;5009347;28;20025;-20
2023/06/02 05:42:54;;;;;;;11.90;8.70;;;;;;;19.58;89.71;99918.59;5009373;28;20050;-19
2023/06/02 05:45:19;;;;;;;10.13;7.57;;;;;;;19.66;88.88;99916.06;5009412;28;20025;-19
2023/06/02 05:47:45;;;;;;;12.93;7.82;;;;;;;19.94;86.21;99924.53;5009200;28;20056;-19
2023/06/02 05:50:11;;;;;;;12.50;7.30;;;;;;;20.02;83.52;99936.63;5009088;28;20037;-19
2023/06/02 05:52:36;;;;;;;14.38;7.50;;;;;;;20.35;84.08;99929.56;5009222;28;20022;-19
2023/06/02 05:55:02;;;;;;;9.60;6.78;;;;;;;20.15;80.82;99937.88;5009032;28;20038;-19
2023/06/02 05:57:27;;;;;;;9.93;7.10;;;;;;;20.48;79.15;99941.59;5008974;28;20018;-19
2023/06/02 05:59:53;;;;;;;12.80;7.93;;;;;;;20.61;78.06;99948.25;5008935;28;20434;-22
2023/06/02 06:02:19;;;;;;;10.75;7.65;;;;;;;20.44;80.17;99938.66;5009216;28;20101;-20
2023/06/02 06:04:44;;;;;;;10.77;7.00;;;;;;;20.67;77.46;99952.50;5008736;28;20030;-18
2023/06/02 06:07:10;;;;;;;11.55;7.45;;;;;;;20.54;76.36;99945.06;5008593;28;20436;-19
2023/06/02 06:09:35;;;;;;;9.80;7.53;;;;;;;20.63;79.51;99949.56;5008717;28;20389;-20
2023/06/02 06:12:00;;;;;;;11.45;8.65;;;;;;;20.76;76.61;99958.09;5008821;28;20416;-18
2023/06/02 06:14:26;;;;;;;12.98;9.07;;;;;;;20.69;74.96;99955.75;5008654;28;20065;-18
2023/06/02 06:16:51;;;;;;;14.18;8.88;;;;;;;20.87;79.96;99951.47;5008824;28;20030;-19
2023/06/02 06:19:18;;;;;;;15.10;9.32;;;;;;;20.94;75.08;99948.38;5008565;28;20099;-20
2023/06/02 06:21:43;;;;;;;12.35;8.93;;;;;;;20.94;77.89;99948.38;5008646;28;20104;-19
2023/06/02 06:24:08;;;;;;;10.05;8.15;;;;;;;20.94;77.34;99954.63;5008652;28;20036;-18
2023/06/02 06:26:34;;;;;;;11.85;8.68;;;;;;;21.00;78.32;99952.66;5007821;28;20038;-20
2023/06/02 06:28:59;;;;;;;12.60;8.48;;;;;;;21.10;77.09;99955.22;5007898;28;20033;-19
2023/06/02 06:31:25;;;;;;;10.25;8.20;;;;;;;21.25;78.67;99952.31;5008229;28;20029;-21
2023/06/02 06:33:51;;;;;;;13.52;8.13;;;;;;;21.38;75.37;99958.91;5008494;28;20926;-19
2023/06/02 06:36:17;;;;;;;16.33;8.65;;;;;;;21.41;78.68;99952.09;5008185;28;20025;-19
2023/06/02 06:38:42;;;;;;;13.73;8.18;;;;;;;21.56;72.68;99949.19;5008218;28;20030;-19
2023/06/02 06:41:08;;;;;;;13.10;8.70;;;;;;;21.76;76.85;99947.25;5008102;28;20444;-19
2023/06/02 06:43:33;;;;;;;14.80;8.60;;;;;;;21.70;75.20;99938.41;5007844;28;20439;-19
2023/06/02 06:45:59;;;;;;;13.90;8.23;;;;;;;22.10;73.64;99933.34;5008182;28;20459;-19
2023/06/02 06:48:25;;;;;;;13.40;7.45;;;;;;;22.03;70.12;99938.38;5008204;28;20025;-20
2023/06/02 06:50:51;;;;;;;11.73;7.55;;;;;;;22.01;66.91;99938.69;5008048;28;20120;-19
2023/06/02 06:53:18;;;;;;;10.93;7.88;;;;;;;22.19;70.55;99922.59;5008009;28;20478;-19
2023/06/02 06:55:45;;;;;;;11.05;8.02;;;;;;;22.35;67.09;99909.56;5007881;28;20102;-19
2023/06/02 06:58:10;;;;;;;10.80;7.25;;;;;;;22.86;66.37;99919.41;5007804;28;20406;-19
2023/06/02 07:00:36;;;;;;;9.48;7.55;;;;;;;22.89;65.66;99912.59;5007614;28;20037;-20
2023/06/02 07:03:01;;;;;;;12.85;7.93;;;;;;;22.80;66.48;99926.06;5007854;28;20088;-19
2023/06/02 07:05:28;;;;;;;11.68;7.45;;;;;;;22.73;66.83;99920.25;5007382;28;20018;-19
2023/06/02 07:07:54;;;;;;;9.57;7.07;;;;;;;23.27;63.46;99918.53;5008264;28;20050;-19
2023/06/02 07:10:20;;;;;;;11.55;7.18;;;;;;;23.30;65.73;99917.13;5008506;28;20814;-21
2023/06/02 07:12:45;;;;;;;10.30;6.80;;;;;;;23.45;62.12;99924.94;5008546;28;20034;-19
2023/06/02 07:15:11;;;;;;;10.52;6.35;;;;;;;23.66;57.75;99922.53;5008372;28;20455;-22
2023/06/02 07:17:39;;;;;;;12.40;6.93;;;;;;;23.97;59.90;99936.22;5009017;28;20034;-19
2023/06/02 07:20:05;;;;;;;8.98;6.80;;;;;;;23.79;57.87;99929.06;5009058;28;20026;-18
2023/06/02 07:22:30;;;;;;;10.98;6.75;;;;;;;24.04;57.68;99933.84;5009082;28;20030;-20
2023/06/02 07:24:56;;;;;;;9.27;5.13;;;;;;;24.12;52.82;99932.28;5008811;28;20022;-18
2023/06/02 07:27:21;;;;;;;8.35;5.85;;;;;;;24.21;54.12;99929.59;5008787;28;20026;-21
2023/06/02 07:29:47;;;;;;;9.20;6.25;;;;;;;24.15;54.49;99925.41;5008556;28;20646;-18
2023/06/02 07:32:12;;;;;;;10.98;6.05;;;;;;;24.21;56.50;99924.16;5008554;28;20018;-19
2023/06/02 07:34:39;;;;;;;10.02;5.70;;;;;;;24.35;54.89;99913.94;5008359;28;20040;-18
2023/06/02 07:37:05;;;;;;;9.02;6.03;;;;;;;24.39;53.73;99923.09;5008605;28;20083;-19
2023/06/02 07:39:30;;;;;;;9.95;5.93;;;;;;;24.46;55.67;99915.28;5008008;28;20022;-19
2023/06/02 07:41:56;;;;;;;9.48;5.60;;;;;;;24.43;54.22;99915.91;5008683;28;20076;-19
2023/06/02 07:44:21;;;;;;;8.93;5.35;;;;;;;24.45;51.35;99924.56;5007983;28;20428;-17
2023/06/02 07:46:47;;;;;;;8.25;4.90;;;;;;;24.66;51.41;99924.00;5007483;28;20026;-19
2023/06/02 07:49:13;;;;;;;10.10;5.38;;;;;;;24.61;50.89;99922.25;5007849;28;20066;-19
2023/06/02 07:51:39;;;;;;;8.85;5.63;;;;;;;24.67;53.09;99920.19;5008202;28;20068;-18
2023/06/02 07:54:05;;;;;;;8.65;5.55;;;;;;;24.89;52.31;99921.19;5008455;28;20053;-19
2023/06/02 07:56:31;;;;;;;9.60;6.07;;;;;;;25.20;53.51;99927.31;5008184;28;20030;-19
2023/06/02 07:58:56;;;;;;;8.00;5.53;;;;;;;25.26;49.35;99928.81;5008207;28;20370;-19
2023/06/02 08:01:22;;;;;;;6.93;5.35;;;;;;;25.17;50.49;99921.69;5007454;28;20044;-19
2023/06/02 08:03:47;;;;;;;9.32;5.60;;;;;;;25.66;51.96;99923.19;5007291;28;20021;-18
2023/06/02 08:06:13;;;;;;;9.45;5.60;;;;;;;25.71;47.50;99926.88;5007096;28;20457;-18
2023/06/02 08:08:39;;;;;;;7.95;5.15;;;;;;;25.91;48.41;99928.13;5007310;28;20030;-18
2023/06/02 08:11:04;;;;;;;7.50;5.13;;;;;;;26.40;47.00;99923.94;5007806;28;20033;-19
2023/06/02 08:13:30;;;;;;;7.82;4.72;;;;;;;26.33;45.34;99937.31;5007659;28;20034;-19
2023/06/02 08:15:56;;;;;;;8.43;5.03;;;;;;;26.34;44.93;99925.25;5007612;28;20036;-19
2023/06/02 08:18:21;;;;;;;10.70;5.10;;;;;;;26.37;43.94;99916.38;5007677;28;20393;-18
2023/06/02 08:20:47;;;;;;;9.07;5.15;;;;;;;26.57;44.63;99908.59;5007864;28;20104;-19
2023/06/02 08:23:12;;;;;;;7.85;4.97;;;;;;;26.72;45.33;99907.25;5007648;28;20042;-19
2023/06/02 08:25:38;;;;;;;8.52;5.03;;;;;;;26.64;45.30;99906.16;5007424;28;20476;-19
2023/06/02 08:28:07;;;;;;;8.10;5.20;;;;;;;26.20;45.61;99909.06;5007374;28;20061;-18
2023/06/02 08:30:35;;;;;;;8.00;5.10;;;;;;;26.54;46.66;99906.50;5007426;28;20033;-19
2023/06/02 08:33:05;;;;;;;7.43;5.20;;;;;;;26.77;44.18;99905.13;5007593;28;20040;-19
2023/06/02 08:35:32;;;;;;;7.63;4.90;;;;;;;26.79;44.46;99891.91;5007342;28;20122;-19
2023/06/02 08:38:02;;;;;;;8.30;5.53;;;;;;;26.63;45.92;99893.63;5007483;28;20084;-18
2023/06/02 08:40:35;;;;;;;9.85;5.70;;;;;;;26.74;44.37;99892.09;5007599;28;20045;-19
2023/06/02 08:43:03;;;;;;;10.32;5.03;;;;;;;26.74;44.52;99899.50;5006943;28;20046;-19
2023/06/02 08:45:29;;;;;;;;;;;;;;;26.49;44.02;99887.56;5007981;28;20088;-19
2023/06/02 08:47:56;;;;;;;12.10;4.68;;;;;;;26.66;45.21;99890.22;5007572;28;19920;-18
2023/06/02 08:50:28;;;;;;;7.80;4.55;;;;;;;26.95;45.60;99894.03;5008006;28;20030;-18
2023/06/02 08:52:57;;;;;;;8.18;4.93;;;;;;;27.08;42.90;99898.47;5011030;28;20038;-18
2023/06/02 08:55:26;;;;;;;8.65;5.20;;;;;;;27.34;44.59;99894.72;5011335;28;20076;-19
2023/06/02 08:57:51;;;;;;;11.13;7.32;;;;;;;27.37;43.25;99891.31;5011023;28;20572;-19
2023/06/02 09:00:18;;;;;;;10.68;4.80;;;;;;;27.44;39.68;99883.34;5011108;28;20109;-19
2023/06/02 09:02:47;;;;;;;7.80;4.70;;;;;;;27.33;40.06;99873.97;5010861;28;20053;-18
2023/06/02 09:05:16;;;;;;;6.88;4.30;;;;;;;27.48;37.66;99884.28;5010959;28;20102;-19
2023/06/02 09:07:44;;;;;;;6.75;4.07;;;;;;;27.45;40.13;99876.75;5011057;28;20030;-19
2023/06/02 09:10:09;;;;;;;9.30;4.40;;;;;;;27.37;38.64;99878.44;5010798;28;20030;-18
2023/06/02 09:12:48;;;;;;;6.32;4.40;;;;;;;27.10;39.36;99874.28;5009808;28;20025;-19
2023/06/02 09:15:14;;;;;;;8.02;4.18;;;;;;;27.00;38.63;99874.69;5009794;28;20037;-19
2023/06/02 09:17:39;;;;;;;8.45;4.43;;;;;;;27.39;40.32;99867.16;5009427;28;20037;-20
2023/06/02 09:20:11;;;;;;;6.43;3.42;;;;;;;27.25;35.19;99872.91;5009544;28;20430;-20
2023/06/02 09:22:57;;;;;;;7.03;3.60;;;;;;;27.58;37.54;99856.50;5009797;28;20770;-21
2023/06/02 09:25:27;;;;;;;8.32;4.53;;;;;;;27.35;37.17;99852.53;5009567;28;20523;-19
2023/06/02 09:27:55;;;;;;;7.55;4.72;;;;;;;27.11;39.89;99856.72;5009632;28;20510;-19
2023/06/02 09:30:21;;;;;;;8.38;5.07;;;;;;;27.21;40.06;99856.31;5009495;28;20037;-19
2023/06/02 09:33:17;;;;;;;8.52;4.13;;;;;;;27.75;34.01;99851.97;5009558;28;20141;-19
2023/06/02 09:35:44;;;;;;;8.95;4.05;;;;;;;27.97;33.65;99857.06;5009311;28;20572;-19
2023/06/02 09:38:16;;;;;;;9.00;4.00;;;;;;;27.99;34.38;99856.69;5009125;28;20195;-19
2023/06/02 09:40:43;;;;;;;9.48;3.75;;;;;;;28.08;34.67;99845.63;5009303;28;20429;-19
2023/06/02 09:43:11;;;;;;;7.20;3.90;;;;;;;28.20;36.12;99842.91;5009414;28;20116;-19
2023/06/02 09:45:57;;;;;;;;;;;;;;;28.08;37.40;99849.16;5009722;28;20022;-19
2023/06/02 09:48:23;;;;;;;9.63;4.10;;;;;;;28.32;35.31;99851.13;5008812;28;20382;-20
2023/06/02 09:50:49;;;;;;;6.65;3.70;;;;;;;28.18;33.27;99850.66;5007929;28;20698;-19
2023/06/02 09:53:17;;;;;;;6.63;3.92;;;;;;;28.18;32.69;99847.94;5007629;28;20639;-19
2023/06/02 09:55:45;;;;;;;7.07;3.58;;;;;;;28.30;34.05;99858.06;5007819;28;20528;-19
2023/06/02 09:58:11;;;;;;;6.82;3.90;;;;;;;28.56;33.31;99852.25;5007219;28;20113;-19
2023/06/02 10:00:37;;;;;;;8.55;4.22;;;;;;;29.18;33.80;99853.72;5007334;28;20117;-20
2023/06/02 10:03:04;;;;;;;7.78;3.95;;;;;;;29.12;34.94;99844.13;5007654;28;20053;-19
2023/06/02 10:05:30;;;;;;;6.97;3.92;;;;;;;28.81;32.57;99840.09;5007830;28;20100;-19
2023/06/02 10:08:01;;;;;;;6.63;4.07;;;;;;;28.51;33.97;99847.03;5007489;28;20088;-22
2023/06/02 10:11:15;;;;;;;8.45;4.00;;;;;;;27.90;36.13;99820.38;5006412;28;20061;-20
2023/06/02 10:13:40;;;;;;;6.00;4.32;;;;;;;28.52;36.74;99821.16;4951923;28;20039;-19
2023/06/02 10:16:11;;;;;;;9.15;4.07;;;;;;;28.97;31.77;99831.94;4999782;28;20037;-20
2023/06/02 10:18:58;;;;;;;8.60;4.43;;;;;;;28.42;35.97;99828.72;5007305;28;20033;-20
2023/06/02 10:21:35;;;;;;;10.23;3.95;;;;;;;28.62;32.20;99820.69;5008029;28;21951;-19
2023/06/02 10:24:16;;;;;;;;;;;;;;;28.77;32.52;99822.72;5007842;28;20157;-25
2023/06/02 10:27:08;;;;;;;6.90;3.92;;;;;;;28.99;33.55;99820.59;5006701;28;19913;-20
2023/06/02 10:29:35;;;;;;;8.02;3.40;;;;;;;28.44;30.65;99815.44;5003487;28;20030;-19
2023/06/02 10:32:20;;;;;;;6.65;3.45;;;;;;;28.47;31.92;99796.72;5007224;28;20034;-24
2023/06/02 10:34:51;;;;;;;8.02;3.65;;;;;;;28.88;32.93;99790.09;5006614;28;20436;-21
2023/06/02 10:37:18;;;;;;;6.88;3.90;;;;;;;28.78;31.73;99807.84;5005013;28;20034;-20
2023/06/02 10:39:44;;;;;;;7.60;3.88;;;;;;;29.19;31.10;99805.09;5007301;28;20048;-19
2023/06/02 10:42:11;;;;;;;6.53;3.53;;;;;;;28.71;29.04;99804.91;5006787;28;21236;-19
2023/06/02 10:44:37;;;;;;;7.70;3.80;;;;;;;29.16;29.42;99805.81;5006739;28;20045;-24
2023/06/02 10:47:17;;;;;;;5.50;3.45;;;;;;;29.49;29.33;99797.25;5006814;28;20030;-19
2023/06/02 10:50:01;;;;;;;6.13;3.58;;;;;;;29.59;29.34;99804.97;5003559;28;20040;-20
2023/06/02 10:53:13;;;;;;;6.85;3.15;;;;;;;29.45;31.08;99801.88;5007120;28;20026;-22
2023/06/02 10:55:39;;;;;;;6.03;3.70;;;;;;;30.03;29.20;99791.16;5002432;28;20429;-21
2023/06/02 10:58:07;;;;;;;9.02;3.70;;;;;;;29.67;27.92;99802.41;5006930;28;20515;-19
2023/06/02 11:00:43;;;;;;;10.65;3.53;;;;;;;29.35;29.02;99799.63;5006632;28;20046;-19
2023/06/02 11:03:17;;;;;;;8.10;3.70;;;;;;;29.39;30.10;99781.31;5007053;28;20087;-19
2023/06/02 11:05:44;;;;;;;8.98;3.78;;;;;;;30.17;30.42;99784.41;5006707;28;20116;-19
2023/06/02 11:08:14;;;;;;;7.22;3.08;;;;;;;29.70;27.88;99785.22;5006744;28;20061;-19
2023/06/02 11:11:08;;;;;;;5.97;3.55;;;;;;;29.83;28.39;99783.97;5006512;28;20421;-19
2023/06/02 11:13:57;;;;;;;7.13;3.55;;;;;;;29.76;29.75;99767.34;4973756;28;20509;-21
2023/06/02 11:16:26;;;;;;;6.28;3.50;;;;;;;30.01;30.69;99774.22;5006059;28;20540;-20
2023/06/02 11:18:51;;;;;;;6.10;3.33;;;;;;;29.67;29.52;99774.91;5007042;28;20045;-19
2023/06/02 11:21:20;;;;;;;6.63;3.88;;;;;;;29.71;28.53;99775.84;5006164;28;20439;-19
2023/06/02 11:23:46;;;;;;;6.03;3.20;;;;;;;29.94;29.17;99774.06;5007049;28;20018;-19
2023/06/02 11:26:16;;;;;;;7.80;3.70;;;;;;;29.91;28.71;99773.97;5006188;28;20719;-19